Terminal Aerodrome Forecast
Issued by NWS

Home | Current Version | Previous Version | Text Only | Print | Product List | Glossary On
Versions: 1 2 3 4 5 6 7 8 9 10 11 12 13 14 15 16 17 18 19 20 21 22 23 24 25 26 27 28 29
000
FTUS46 KPDT 211100
TAFALW
TAF
KALW 211120Z 2112/2212 22025G35KT P6SM SCT050 OVC070
     FM211700 24015G25KT P6SM OVC040
     FM220100 20012KT P6SM OVC035=

USA.gov is the U.S. government's official web portal to all federal, state and local government web resources and services.